Latest Coastal Weather Observations for Cape Leeuwin

IDW60701

Issued at 10:52 am WST Tuesday 25 June 2024 (issued every 10 minutes, with the page automatically refreshed every 10 minutes)

About coastal observations | Map of coastal stations | Coastal observations for WA | Marine services | Other Formats
Station Details ID: 009518 Name: CAPE LEEUWIN Lat: -34.37 Lon: 115.14 Height: 13.0 m
Data from the previous 72 hours. | See also: Recent months at Cape Leeuwin
Date/Time
WST
Wind Sea
Height
m
Swell Vis
km
Cloud Weather Temp
°C
Press
MSL
hPa
Rain since
9am
mm
Dir  Spd
kts
Gust
kts
Height
m
Period
s
Dir
25/10:30am NNE 12 16 - - - - - - - 13.3 1017.6 0.0
25/10:00am NE 13 18 - - - - - - - 12.0 1017.7 0.0
25/09:30am NE 14 19 - - - - - - - 11.3 1017.8 0.0
25/09:00am NNE 12 16 - - - - - - - 10.8 1018.0 0.2
25/08:30am NNE 11 15 - - - - - - - 10.4 1017.9 0.2
25/08:00am NNE 12 16 - - - - - - - 9.7 1018.1 0.2
25/07:30am NNE 11 15 - - - - - - - 9.6 1018.0 0.2
25/07:00am NNE 11 15 - - - - - - - 10.3 1018.4 0.2
25/06:30am NNE 11 14 - - - - - - - 10.5 1018.7 0.2
25/06:00am NNE 10 12 - - - - - - - 10.5 1018.8 0.2
25/05:30am NNE 10 13 - - - - - - - 10.4 1018.8 0.2
25/05:00am NNE 12 15 - - - - - - - 10.1 1018.8 0.2
25/04:30am NE 10 13 - - - - - - - 9.7 1019.3 0.2
25/04:00am NE 10 13 - - - - - - - 10.3 1019.7 0.2
25/03:30am NNE 8 11 - - - - - - - 10.5 1020.0 0.2
25/03:00am NNE 9 13 - - - - - - - 10.4 1020.6 0.2
25/02:30am NNE 9 11 - - - - - - - 10.7 1020.8 0.2
25/02:00am NNE 12 15 - - - - - - - 10.6 1020.7 0.2
25/01:30am NE 11 15 - - - - - - - 10.8 1020.7 0.2
25/01:00am NE 10 13 - - - - - - - 11.1 1021.0 0.2
25/12:30am NE 5 9 - - - - - - - 11.4 1021.4 0.2
25/12:00am NE 6 9 - - - - - - - 11.8 1022.1 0.2
 
Date/Time
WST
Wind Sea
Height
m
Swell Vis
km
Cloud Weather Temp
°C
Press
MSL
hPa
Rain since
9am
mm
Dir  Spd
kts
Gust
kts
Height
m
Period
s
Dir
24/11:30pm NE 10 13 - - - - - - - 11.8 1022.5 0.2
24/11:00pm NE 11 13 - - - - - - - 11.9 1022.7 0.2
24/10:30pm NE 7 10 - - - - - - - 12.2 1023.2 0.2
24/10:00pm NE 9 12 - - - - - - - 12.8 1023.3 0.2
24/09:30pm ENE 11 17 - - - - - - - 13.9 1023.2 0.2
24/09:00pm SE 9 13 - - - - - - - 14.1 1023.2 0.2
24/08:30pm SE 11 16 - - - - - - - 13.4 1023.7 0.2
24/08:00pm ESE 13 21 - - - - - - - 13.4 1024.0 0.2
24/07:30pm SE 12 17 - - - - - - - 14.3 1023.8 0.2
24/07:00pm SE 11 14 - - - - - - - 13.9 1023.8 0.2
24/06:30pm SSE 11 15 - - - - - - - 13.9 1023.7 0.2
24/06:00pm SE 13 19 - - - - - - - 14.2 1023.5 0.2
24/05:30pm SE 10 14 - - - - - - - 13.8 1023.8 0.2
24/05:00pm SSE 13 16 - - - - - - - 13.7 1024.1 0.2
24/04:30pm SSE 16 20 - - - - - - - 14.3 1024.2 0.2
24/04:00pm SSE 12 16 - - - - - - - 14.5 1024.3 0.2
24/03:30pm SSE 11 15 - - - - - - - 15.3 1024.6 0.2
24/03:00pm SSE 10 16 - - - - - - - 14.7 1024.5 0.2
24/02:30pm S 16 21 - - - - - - - 13.2 1024.8 0.2
24/02:00pm SSE 9 14 - - - - - - - 12.6 1024.9 0.2
24/01:30pm SSE 13 18 - - - - - - - 13.5 1025.1 0.0
24/01:00pm SSE 13 18 - - - - - - - 14.4 1025.3 0.0
24/12:30pm S 15 19 - - - - - - - 15.0 1025.5 0.0
24/12:00pm S 12 15 - - - - - - - 15.2 1025.9 0.0
24/11:30am SSE 12 16 - - - - - - - 15.1 1026.5 0.0
24/11:00am S 13 22 - - - - - - - 13.7 1027.1 0.0
24/10:30am S 14 20 - - - - - - - 13.8 1027.4 0.0
24/10:00am S 15 20 - - - - - - - 13.9 1027.4 0.0
24/09:30am S 14 21 - - - - - - - 14.0 1027.1 0.0
24/09:00am S 15 21 - - - - - - - 14.0 1027.1 6.0
24/08:30am SSE 16 21 - - - - - - - 13.5 1026.9 6.0
24/08:00am S 16 23 - - - - - - - 12.8 1026.9 6.0
24/07:30am SSE 16 24 - - - - - - - 13.4 1026.7 6.0
24/07:00am S 15 18 - - - - - - - 13.7 1026.4 6.0
24/06:30am S 15 19 - - - - - - - 13.4 1026.2 6.0
24/06:00am S 12 17 - - - - - - - 13.8 1026.1 6.0
24/05:30am S 14 19 - - - - - - - 13.6 1026.0 6.0
24/05:00am S 16 22 - - - - - - - 13.6 1026.0 6.0
24/04:30am SSE 15 20 - - - - - - - 13.8 1025.9 6.0
24/04:00am S 15 21 - - - - - - - 13.8 1026.1 6.0
24/03:30am S 17 23 - - - - - - - 13.5 1026.2 6.0
24/03:00am SW 17 22 - - - - - - Recent precip. 13.5 1026.4 5.8
24/02:30am S 15 21 - - - - - - - 13.2 1026.6 5.8
24/02:00am S 17 25 - - - - - - - 14.2 1026.7 4.6
24/01:30am SSW 17 24 - - - - - - - 13.9 1026.6 4.6
24/01:00am SSW 11 24 - - - - - - - 13.7 1026.8 4.2
24/12:33am SSW 15 26 - - - - - - - 14.0 1027.2 3.4
24/12:30am SSW 14 19 - - - - - - - 14.5 1027.1 2.8
24/12:00am SSW 14 21 - - - - - - - 13.7 1027.4 2.8
 
Date/Time
WST
Wind Sea
Height
m
Swell Vis
km
Cloud Weather Temp
°C
Press
MSL
hPa
Rain since
9am
mm
Dir  Spd
kts
Gust
kts
Height
m
Period
s
Dir
23/11:30pm SSW 16 21 - - - - - - - 14.0 1027.6 2.8
23/11:00pm SSW 15 20 - - - - - - - 13.8 1027.7 2.8
23/10:30pm SSW 18 24 - - - - - - - 14.2 1027.7 2.8
23/10:00pm SW 13 19 - - - - - - - 13.8 1027.6 0.2
23/09:30pm SSW 15 21 - - - - - - - 14.5 1027.9 0.2
23/09:00pm SSW 13 18 - - - - - - - 15.2 1027.7 0.2
23/08:30pm SSW 15 19 - - - - - - - 14.9 1027.9 0.2
23/08:00pm SSW 14 17 - - - - - - - 15.0 1027.9 0.2
23/07:30pm SSW 15 19 - - - - - - - 15.0 1027.7 0.2
23/07:00pm S 14 19 - - - - - - - 14.8 1027.6 0.2
23/06:36pm SSW 9 20 - - - - - - - 14.3 1027.6 0.2
23/06:30pm SSW 6 9 - - - - - - - 14.0 1027.5 0.2
23/06:00pm WSW 17 21 - - - - - - - 14.0 1027.7 0.2
23/05:30pm S 13 21 - - - - - - - 14.5 1027.6 0.2
23/05:00pm S 15 20 - - - - - - - 14.8 1027.4 0.2
23/04:30pm S 9 14 - - - - - - - 15.2 1027.2 0.2
23/04:00pm S 11 14 - - - - - - - 15.9 1027.0 0.2
23/03:30pm SSW 12 15 - - - - - - - 16.6 1026.8 0.2
23/03:00pm SSW 12 17 - - - - - - - 15.8 1026.9 0.2
23/02:30pm S 12 16 - - - - - - - 15.6 1026.9 0.2
23/02:00pm S 11 16 - - - - - - - 15.9 1026.8 0.2
23/01:30pm SSW 9 13 - - - - - - - 17.4 1026.9 0.2
23/01:00pm SSW 12 16 - - - - - - - 16.2 1027.3 0.0
23/12:34pm S 15 27 - - - - - - - 15.3 1027.4 0.0
23/12:30pm SSW 14 27 - - - - - - - 15.8 1027.4 0.0
23/12:00pm S 11 17 - - - - - - - 16.4 1027.4 0.0
23/11:30am SSW 12 15 - - - - - - - 17.0 1027.9 0.0
23/11:00am S 14 19 - - - - - - - 17.1 1027.9 0.0
23/10:30am S 15 21 - - - - - - - 16.4 1027.8 0.0
23/10:00am S 15 21 - - - - - - - 15.6 1027.7 0.0
23/09:30am S 15 20 - - - - - - - 15.3 1027.5 0.0
23/09:00am S 16 21 - - - - - - - 15.0 1027.3 1.2
23/08:30am S 16 22 - - - - - - - 14.7 1026.9 1.2
23/08:00am SSW 17 23 - - - - - - - 14.7 1026.3 1.2
23/07:30am SSW 16 23 - - - - - - - 14.7 1026.0 1.2
23/07:00am SSW 21 27 - - - - - - - 14.5 1025.9 1.2
23/06:30am SSW 19 26 - - - - - - - 14.6 1025.4 1.2
23/06:00am SSW 19 23 - - - - - - - 14.4 1025.0 1.2
23/05:30am SW 21 26 - - - - - - - 13.9 1025.0 1.2
23/05:00am SSW 21 29 - - - - - - - 14.2 1024.7 1.2
23/04:30am WSW 19 23 - - - - - - - 14.2 1024.4 1.2
23/04:00am SSW 18 24 - - - - - - - 13.6 1024.6 1.2
23/03:30am WSW 15 27 - - - - - - - 14.1 1024.3 1.2
23/03:07am WSW 22 32 - - - - - - - 15.0 1024.4 1.0
23/03:00am WSW 24 32 - - - - - - - 14.6 1024.3 1.0
23/02:57am SW 21 31 - - - - - - - 14.8 1024.1 1.0
23/02:30am SW 19 25 - - - - - - - 14.4 1024.2 1.0
23/02:00am WSW 20 27 - - - - - - - 14.1 1024.1 1.0
23/01:34am WSW 18 30 - - - - - - - 14.0 1024.0 1.0
23/01:30am WSW 19 26 - - - - - - - 13.7 1024.1 1.0
23/01:00am WSW 21 25 - - - - - - - 14.2 1023.9 1.0
23/12:30am SW 19 25 - - - - - - - 15.0 1023.8 0.6
23/12:00am WSW 19 26 - - - - - - - 15.3 1023.8 0.6
 
Date/Time
WST
Wind Sea
Height
m
Swell Vis
km
Cloud Weather Temp
°C
Press
MSL
hPa
Rain since
9am
mm
Dir  Spd
kts
Gust
kts
Height
m
Period
s
Dir
22/11:30pm SW 20 26 - - - - - - - 15.2 1023.9 0.6
22/11:00pm SW 22 28 - - - - - - - 15.1 1023.7 0.6
22/10:30pm SW 20 26 - - - - - - - 15.4 1023.5 0.6
22/10:00pm WSW 21 29 - - - - - - - 15.0 1023.2 0.6
22/09:30pm WSW 19 22 - - - - - - - 14.8 1023.2 0.6
22/09:09pm SW 22 32 - - - - - - - 15.2 1022.9 0.6
22/09:00pm SW 22 26 - - - - - - - 15.4 1022.9 0.6
22/08:30pm SW 22 28 - - - - - - - 15.1 1022.7 0.6
22/08:00pm SW 22 29 - - - - - - - 14.8 1022.5 0.6
22/07:30pm SW 20 27 - - - - - - - 14.7 1022.4 0.6
22/07:00pm WSW 21 27 - - - - - - - 14.9 1022.1 0.6
22/06:44pm SW 23 31 - - - - - - - 13.9 1021.9 0.6
22/06:31pm WSW 19 29 - - - - - - - 15.1 1021.7 0.6
22/06:30pm WSW 18 23 - - - - - - - 14.9 1021.7 0.6
22/06:25pm WSW 22 32 - - - - - - - 14.4 1021.8 0.6
22/06:00pm WSW 22 29 - - - - - - - 15.2 1021.1 0.6
22/05:30pm WSW 21 27 - - - - - - - 15.6 1020.6 0.6
22/05:00pm WSW 23 30 - - - - - - - 15.3 1020.4 0.6
22/04:42pm WSW 21 31 - - - - - - - 15.5 1020.2 0.6
22/04:30pm WSW 23 29 - - - - - - - 15.6 1020.2 0.6
22/04:00pm WSW 23 29 - - - - - - - 15.1 1020.2 0.6
22/03:30pm WSW 25 31 - - - - - - - 15.3 1019.9 0.6
22/03:00pm WSW 25 32 - - - - - - - 15.5 1019.4 0.6
22/02:30pm WSW 27 32 - - - - - - - 15.6 1019.1 0.6
22/02:00pm WSW 26 30 - - - - - - - 15.9 1018.8 0.6
22/01:30pm WSW 26 33 - - - - - - - 16.4 1018.7 0.6
22/01:00pm WSW 28 35 - - - - - - - 16.1 1018.6 0.6
22/12:40pm WSW 28 38 - - - - - - - 14.8 1018.4 0.6
22/12:30pm WSW 25 32 - - - - - - - 15.6 1018.6 0.6
22/12:00pm WSW 30 36 - - - - - - - 15.2 1018.7 0.6
22/11:30am WSW 32 39 - - - - - - - 15.6 1018.6 0.6
22/11:04am WSW 30 40 - - - - - - - 14.5 1018.3 0.6
22/11:00am WSW 31 38 - - - - - - - 14.5 1018.5 0.6

Other formats

Comma delimited format used in spreadsheet applications
http://www.bom.gov.au/fwo/IDW60701/IDW60701.94601.axf

JavaScript Object Notation format (JSON) in row-major order
http://www.bom.gov.au/fwo/IDW60701/IDW60701.94601.json

Data quality

Most of these data are generated automatically and are frequently updated. Quality checks on data are not normally performed. It is possible for incorrect values to appear. Refer to information at About Latest Weather Observations and please check the disclaimer before using these data.